Time;durP1;ratioP1;P1;durP2;ratioP2;P2;SDS_P1;SDS_P2;PMS_P1;PMS_P2;Temp;Humidity;BMP_temperature;BMP_pressure;BME280_temperature;BME280_humidity;BME280_pressure;Samples;Min_cycle;Max_cycle;Signal;HPM_P1;HPM_P2
2021/11/10 00:00:12;;;;;;;3.85;3.20;;;0.60;97.30;;;;;;5037428;28;20021;-90
2021/11/10 00:02:38;;;;;;;4.85;2.90;;;0.50;97.30;;;;;;5036455;28;20087;-92
2021/11/10 00:05:05;;;;;;;4.55;2.80;;;0.50;97.50;;;;;;5036557;28;20025;-91
2021/11/10 00:07:32;;;;;;;6.57;3.45;;;0.40;97.60;;;;;;5036496;28;20372;-89
2021/11/10 00:09:58;;;;;;;5.07;2.88;;;0.50;97.70;;;;;;5036481;28;20468;-89
2021/11/10 00:12:23;;;;;;;6.75;3.40;;;0.40;97.80;;;;;;5036186;28;20045;-91
2021/11/10 00:14:49;;;;;;;6.68;3.60;;;0.40;97.70;;;;;;5036409;28;20041;-88
2021/11/10 00:17:15;;;;;;;5.50;2.67;;;0.30;97.80;;;;;;5036665;28;20033;-91
2021/11/10 00:19:41;;;;;;;9.15;2.97;;;0.30;97.90;;;;;;5036358;28;20108;-88
2021/11/10 00:22:07;;;;;;;4.13;2.78;;;0.30;98.00;;;;;;5036378;28;20040;-89
2021/11/10 00:24:33;;;;;;;6.15;2.97;;;0.30;98.50;;;;;;5036108;28;20025;-90
2021/11/10 00:26:59;;;;;;;3.92;2.97;;;0.30;98.20;;;;;;5036365;28;20029;-87
2021/11/10 00:29:25;;;;;;;5.18;3.13;;;0.30;98.40;;;;;;5036942;28;20057;-88
2021/11/10 00:31:55;;;;;;;4.72;2.92;;;0.30;98.50;;;;;;5036361;28;20025;-87
2021/11/10 00:34:20;;;;;;;4.30;3.10;;;0.30;98.40;;;;;;5036339;28;20036;-91
2021/11/10 00:36:47;;;;;;;6.80;3.33;;;0.20;98.50;;;;;;5037358;28;20029;-90
2021/11/10 00:39:13;;;;;;;5.20;3.38;;;0.30;98.60;;;;;;5035782;28;20021;-89
2021/11/10 00:41:39;;;;;;;5.88;3.33;;;0.20;98.60;;;;;;5036248;28;20079;-89
2021/11/10 00:44:05;;;;;;;6.25;3.03;;;0.20;98.70;;;;;;5035744;28;20021;-88
2021/11/10 00:46:32;;;;;;;6.18;3.20;;;0.20;98.60;;;;;;5035855;28;20171;-89
2021/11/10 00:48:59;;;;;;;5.43;3.05;;;0.20;98.80;;;;;;5036510;28;20033;-89
2021/11/10 00:51:25;;;;;;;4.93;3.28;;;0.20;98.90;;;;;;5035762;28;20083;-89
2021/11/10 00:53:51;;;;;;;5.38;3.47;;;0.20;99.10;;;;;;5035333;28;20112;-90
2021/11/10 00:56:17;;;;;;;6.53;3.22;;;0.20;99.30;;;;;;5035625;28;20053;-89
2021/11/10 00:58:43;;;;;;;4.95;3.13;;;0.10;99.30;;;;;;5035513;28;20386;-90
2021/11/10 01:01:09;;;;;;;7.07;4.07;;;0.10;99.50;;;;;;5035812;28;20075;-89
2021/11/10 01:03:35;;;;;;;4.40;3.38;;;0.00;99.90;;;;;;5035629;28;20418;-91
2021/11/10 01:06:01;;;;;;;5.93;3.35;;;0.00;99.90;;;;;;5036073;28;20398;-90
2021/11/10 01:08:27;;;;;;;4.80;3.28;;;0.00;99.90;;;;;;5035030;28;20076;-87
2021/11/10 01:10:54;;;;;;;5.82;3.65;;;0.00;99.90;;;;;;5035925;28;20049;-88
2021/11/10 01:13:21;;;;;;;4.22;3.10;;;0.00;99.90;;;;;;5035590;28;20021;-89
2021/11/10 01:15:47;;;;;;;6.05;3.42;;;-0.10;99.90;;;;;;5035353;28;20033;-88
2021/11/10 01:18:13;;;;;;;6.00;4.07;;;-0.10;99.90;;;;;;5034761;28;20061;-88
2021/11/10 01:20:40;;;;;;;6.90;3.97;;;-0.20;99.90;;;;;;5035821;28;20456;-89
2021/11/10 01:23:08;;;;;;;6.88;3.97;;;-0.20;99.90;;;;;;5035175;28;20070;-89
2021/11/10 01:25:35;;;;;;;7.35;4.60;;;-0.10;99.90;;;;;;5035537;28;20025;-90
2021/11/10 01:28:02;;;;;;;6.22;3.90;;;-0.10;99.90;;;;;;5034998;28;20030;-89
2021/11/10 01:30:28;;;;;;;6.97;3.95;;;-0.20;99.90;;;;;;5034978;28;20521;-90
2021/11/10 01:32:54;;;;;;;6.50;4.00;;;-0.30;99.90;;;;;;5034491;28;20037;-88
2021/11/10 01:35:21;;;;;;;9.13;4.40;;;-0.20;99.90;;;;;;5035467;28;20017;-88
2021/11/10 01:37:47;;;;;;;7.50;4.32;;;-0.20;99.90;;;;;;5034974;28;20059;-88
2021/11/10 01:40:15;;;;;;;6.90;4.00;;;-0.20;99.90;;;;;;5034718;28;20026;-88
2021/11/10 01:42:43;;;;;;;6.55;4.38;;;-0.30;99.90;;;;;;5035051;28;20036;-90
2021/11/10 01:45:11;;;;;;;7.15;4.30;;;-0.30;99.90;;;;;;5034903;28;20026;-89
2021/11/10 01:47:37;;;;;;;9.95;4.13;;;-0.30;99.90;;;;;;5035302;28;20048;-89
2021/11/10 01:50:08;;;;;;;8.85;4.22;;;-0.40;99.90;;;;;;5034491;28;20030;-88
2021/11/10 01:52:34;;;;;;;;;;;-0.30;99.90;;;;;;5034780;28;20075;-89
2021/11/10 01:55:00;;;;;;;7.50;4.43;;;-0.40;99.90;;;;;;5034636;28;19913;-88
2021/11/10 01:57:27;;;;;;;6.78;4.55;;;-0.30;99.90;;;;;;5034144;28;20024;-88
2021/11/10 02:00:09;;;;;;;8.45;4.40;;;-0.30;99.90;;;;;;5034379;28;20028;-89
2021/11/10 02:02:36;;;;;;;6.53;4.30;;;-0.40;99.90;;;;;;5034435;28;20026;-88
2021/11/10 02:05:02;;;;;;;8.15;4.70;;;-0.30;99.90;;;;;;5034095;28;20037;-88
2021/11/10 02:07:28;;;;;;;5.20;3.85;;;-0.40;99.90;;;;;;5034242;28;20021;-88
2021/11/10 02:09:54;;;;;;;7.13;4.20;;;-0.40;99.90;;;;;;5035234;28;20026;-88
2021/11/10 02:12:20;;;;;;;9.68;4.63;;;-0.50;99.90;;;;;;5034137;28;20053;-88
2021/11/10 02:14:46;;;;;;;6.18;3.92;;;-0.40;99.90;;;;;;5034110;28;20022;-88
2021/11/10 02:17:14;;;;;;;6.88;4.38;;;-0.40;99.90;;;;;;5034068;28;20028;-88
2021/11/10 02:19:40;;;;;;;5.60;3.95;;;-0.40;99.90;;;;;;5033748;28;20025;-89
2021/11/10 02:22:06;;;;;;;7.35;4.47;;;-0.40;99.90;;;;;;5034090;28;20491;-88
2021/11/10 02:24:33;;;;;;;6.38;4.20;;;-0.50;99.90;;;;;;5033928;28;20036;-88
2021/11/10 02:27:00;;;;;;;8.10;4.15;;;-0.50;99.90;;;;;;5034262;28;20022;-88
2021/11/10 02:29:28;;;;;;;6.20;4.60;;;-0.40;99.90;;;;;;5033864;28;20044;-89
2021/11/10 02:31:56;;;;;;;6.22;4.00;;;-0.50;99.90;;;;;;5033913;28;20121;-88
2021/11/10 02:34:22;;;;;;;5.53;3.80;;;-0.50;99.90;;;;;;5033559;28;20109;-88
2021/11/10 02:36:48;;;;;;;9.32;4.47;;;-0.50;99.90;;;;;;5033675;28;20357;-89
2021/11/10 02:39:20;;;;;;;7.47;4.35;;;-0.50;99.90;;;;;;5033900;28;20032;-88
2021/11/10 02:41:49;;;;;;;7.22;3.90;;;-0.60;99.90;;;;;;5033907;28;20037;-88
2021/11/10 02:44:18;;;;;;;5.93;4.28;;;-0.60;99.90;;;;;;5033698;28;20033;-89
2021/11/10 02:46:45;;;;;;;6.53;3.97;;;-0.50;99.90;;;;;;5033681;28;20036;-88
2021/11/10 02:49:11;;;;;;;6.68;4.32;;;-0.50;99.90;;;;;;5033445;28;20387;-88
2021/11/10 02:51:49;;;;;;;9.73;5.20;;;-0.60;99.90;;;;;;5033175;28;20036;-88
2021/11/10 02:54:15;;;;;;;8.02;4.25;;;-0.60;99.90;;;;;;5033427;28;20021;-87
2021/11/10 02:56:41;;;;;;;8.07;4.72;;;-0.60;99.90;;;;;;5034222;28;20052;-88
2021/11/10 02:59:06;;;;;;;8.00;4.22;;;-0.60;99.90;;;;;;5033283;28;20072;-88
2021/11/10 03:01:32;;;;;;;7.55;4.45;;;-0.60;99.90;;;;;;5032900;28;20037;-88
2021/11/10 03:03:58;;;;;;;6.32;4.60;;;-0.60;99.90;;;;;;5034192;28;20048;-88
2021/11/10 03:06:24;;;;;;;6.88;4.28;;;-0.60;99.90;;;;;;5033228;28;20475;-88
2021/11/10 03:08:50;;;;;;;8.15;4.85;;;-0.60;99.90;;;;;;5033657;28;20488;-88
2021/11/10 03:11:15;;;;;;;7.43;4.40;;;-0.70;99.90;;;;;;5032716;28;20049;-88
2021/11/10 03:13:41;;;;;;;9.23;4.63;;;-0.60;99.90;;;;;;5032837;28;20029;-88
2021/11/10 03:16:08;;;;;;;8.65;5.00;;;-0.60;99.90;;;;;;5032401;28;20026;-89
2021/11/10 03:18:33;;;;;;;6.22;4.05;;;-0.60;99.90;;;;;;5033282;28;20051;-88
2021/11/10 03:20:59;;;;;;;10.35;4.50;;;-0.60;99.90;;;;;;5032899;28;20029;-87
2021/11/10 03:23:25;;;;;;;7.32;4.72;;;-0.70;99.90;;;;;;5033913;28;20368;-88
2021/11/10 03:25:51;;;;;;;6.13;4.45;;;-0.70;99.90;;;;;;5033039;28;20033;-88
2021/11/10 03:28:16;;;;;;;8.45;4.88;;;-0.70;99.90;;;;;;5033515;28;20454;-88
2021/11/10 03:30:42;;;;;;;11.38;4.40;;;-0.80;99.90;;;;;;5033382;28;20028;-88
2021/11/10 03:33:08;;;;;;;9.65;4.63;;;-0.80;99.90;;;;;;5033050;28;20475;-88
2021/11/10 03:35:34;;;;;;;8.48;4.80;;;-0.80;99.90;;;;;;5032694;28;20022;-88
2021/11/10 03:38:00;;;;;;;6.70;4.43;;;-0.80;99.90;;;;;;5032918;28;20480;-88
2021/11/10 03:40:26;;;;;;;9.23;5.25;;;-0.80;99.90;;;;;;5033484;28;20025;-89
2021/11/10 03:42:51;;;;;;;7.03;4.25;;;-0.80;99.90;;;;;;5033757;28;20073;-85
2021/11/10 03:45:17;;;;;;;7.60;4.20;;;-0.80;99.90;;;;;;5032481;28;20052;-86
2021/11/10 03:47:43;;;;;;;11.15;4.70;;;-0.70;99.90;;;;;;5032563;28;20547;-86
2021/11/10 03:50:09;;;;;;;7.97;4.75;;;-0.70;99.90;;;;;;5032647;28;20036;-86
2021/11/10 03:52:35;;;;;;;9.00;4.70;;;-0.70;99.90;;;;;;5032346;28;20486;-85
2021/11/10 03:55:00;;;;;;;6.50;4.70;;;-0.70;99.90;;;;;;5032440;28;20021;-85
2021/11/10 03:57:26;;;;;;;10.05;4.22;;;-0.80;99.90;;;;;;5032562;28;20460;-86
2021/11/10 03:59:52;;;;;;;6.53;4.75;;;-0.80;99.90;;;;;;5033599;28;20029;-86
2021/11/10 04:02:17;;;;;;;10.73;5.05;;;-0.70;99.90;;;;;;5032567;28;20029;-86
2021/11/10 04:04:43;;;;;;;7.78;4.40;;;-0.80;99.90;;;;;;5032532;28;20029;-86
2021/11/10 04:07:09;;;;;;;7.97;5.43;;;-0.90;99.90;;;;;;5032157;28;20071;-86
2021/11/10 04:09:34;;;;;;;9.18;5.30;;;-0.90;99.90;;;;;;5032434;28;20464;-85
2021/11/10 04:12:00;;;;;;;8.30;5.15;;;-0.90;99.90;;;;;;5032504;28;20053;-86
2021/11/10 13:32:13;;;;;;;19.05;3.97;;;3.50;73.40;;;;;;5112118;27;20411;-79
2021/11/10 13:35:00;;;;;;;7.18;3.50;;;3.50;75.30;;;;;;5110349;28;20465;-79
2021/11/10 13:37:37;;;;;;;8.10;5.20;;;3.40;75.40;;;;;;5110458;28;20020;-79
2021/11/10 13:40:03;;;;;;;73.82;19.80;;;3.50;75.70;;;;;;5110116;28;20115;-79
2021/11/10 13:42:30;;;;;;;5.65;3.40;;;3.50;79.30;;;;;;5111531;28;20089;-78
2021/11/10 13:45:26;;;;;;;183.38;44.95;;;3.40;76.30;;;;;;5111230;28;20032;-78
2021/11/10 13:48:07;;;;;;;37.78;12.40;;;3.40;84.70;;;;;;5094038;28;20061;-78
2021/11/10 13:50:35;;;;;;;;;;;3.40;83.40;;;;;;5112124;28;20028;-86
2021/11/10 13:53:13;;;;;;;8.60;4.97;;;3.30;92.60;;;;;;5110899;28;19904;-88
2021/11/10 13:55:57;;;;;;;10.48;6.05;;;3.20;90.40;;;;;;5110848;28;20027;-90
2021/11/10 13:58:23;;;;;;;6.40;4.40;;;3.10;84.70;;;;;;5110882;28;20023;-90
2021/11/10 14:00:50;;;;;;;8.07;4.00;;;3.10;84.20;;;;;;5110946;28;20062;-90
2021/11/10 14:03:30;;;;;;;5.15;3.83;;;3.00;81.70;;;;;;5110823;28;20032;-90
2021/11/10 14:05:56;;;;;;;10.73;5.38;;;3.10;85.90;;;;;;5110753;28;20069;-90
2021/11/10 14:08:24;;;;;;;6.78;3.83;;;3.00;89.60;;;;;;5110535;28;20390;-90
2021/11/10 14:10:59;;;;;;;5.85;3.97;;;3.00;90.50;;;;;;5110544;28;20019;-90
2021/11/10 14:13:25;;;;;;;6.97;4.05;;;2.90;90.20;;;;;;5110665;28;20024;-90
2021/11/10 14:15:51;;;;;;;9.52;4.82;;;2.80;91.10;;;;;;5110991;28;20024;-90
2021/11/10 14:18:18;;;;;;;9.32;5.38;;;2.80;92.20;;;;;;5110245;28;20131;-90
2021/11/10 14:20:47;;;;;;;8.52;5.43;;;2.70;92.70;;;;;;5110302;28;20084;-90
2021/11/10 14:23:22;;;;;;;11.45;5.72;;;2.60;92.90;;;;;;5111458;28;20076;-85
2021/11/10 14:25:58;;;;;;;15.32;9.23;;;2.60;93.40;;;;;;5110326;28;20045;-88
2021/11/10 15:18:24;;;;;;;43.97;16.85;;;1.00;96.00;;;;;;5112914;27;20450;-91
2021/11/10 15:20:53;;;;;;;46.17;22.13;;;0.90;97.30;;;;;;5111144;28;20024;-91
2021/11/10 15:23:21;;;;;;;49.42;23.58;;;0.90;98.30;;;;;;5109974;28;20027;-91
2021/11/10 15:25:48;;;;;;;69.35;31.77;;;0.90;99.10;;;;;;5100579;28;20079;-89
2021/11/10 15:28:20;;;;;;;46.20;21.58;;;0.80;99.50;;;;;;5094125;28;20531;-92
2021/11/10 15:30:53;;;;;;;60.65;28.02;;;0.80;99.90;;;;;;5095309;28;20035;-89
2021/11/10 15:33:22;;;;;;;45.60;20.75;;;0.90;99.90;;;;;;5104246;28;20023;-90
2021/11/10 15:35:51;;;;;;;41.97;19.10;;;0.90;99.90;;;;;;5092328;28;20062;-88
2021/11/10 15:38:19;;;;;;;48.00;20.42;;;0.90;99.90;;;;;;5106257;28;20058;-89
2021/11/10 15:40:48;;;;;;;48.10;20.27;;;0.90;99.90;;;;;;5102568;28;20355;-89
2021/11/10 15:43:15;;;;;;;44.72;20.42;;;1.00;99.90;;;;;;5092037;28;20036;-89
2021/11/10 15:45:42;;;;;;;49.63;22.20;;;1.00;99.90;;;;;;5110620;28;20129;-89
2021/11/10 15:48:08;;;;;;;58.80;25.40;;;1.00;99.90;;;;;;5109061;28;20486;-89
2021/11/10 15:50:35;;;;;;;54.45;25.73;;;1.10;99.90;;;;;;5095911;28;20043;-92
2021/11/10 15:53:01;;;;;;;59.97;27.02;;;1.10;99.90;;;;;;5090312;28;20170;-92
2021/11/10 15:55:27;;;;;;;80.93;32.05;;;1.10;99.90;;;;;;5091355;28;20437;-90
2021/11/10 15:57:53;;;;;;;72.03;31.30;;;1.10;99.90;;;;;;5090182;28;20528;-90
2021/11/10 16:00:25;;;;;;;77.55;33.08;;;1.10;99.90;;;;;;5095827;28;20052;-89
2021/11/10 16:02:51;;;;;;;86.43;37.80;;;1.10;99.90;;;;;;5108984;28;20031;-90
2021/11/10 16:05:23;;;;;;;78.68;35.83;;;1.10;99.90;;;;;;5098187;28;20031;-90
2021/11/10 16:07:48;;;;;;;92.07;39.20;;;1.10;99.90;;;;;;5094966;28;20557;-90
2021/11/10 16:10:14;;;;;;;80.32;35.70;;;1.10;99.90;;;;;;5106866;28;20063;-91
2021/11/10 16:12:40;;;;;;;86.43;38.75;;;1.10;99.90;;;;;;5108663;28;20024;-90
2021/11/10 16:15:07;;;;;;;84.28;35.88;;;1.10;99.90;;;;;;5109527;28;20059;-93
2021/11/10 16:17:34;;;;;;;80.63;35.92;;;1.10;99.90;;;;;;5109522;28;20052;-90
2021/11/10 16:20:00;;;;;;;79.70;34.33;;;1.10;99.90;;;;;;5110025;28;20023;-90
2021/11/10 16:22:25;;;;;;;81.75;34.65;;;1.10;99.90;;;;;;5103488;28;20028;-92
2021/11/10 16:24:51;;;;;;;83.35;39.17;;;1.10;99.90;;;;;;5090687;28;20021;-90
2021/11/10 16:27:20;;;;;;;91.47;40.28;;;1.10;99.90;;;;;;5089653;28;20024;-93
2021/11/10 16:29:50;;;;;;;82.05;39.40;;;1.10;99.90;;;;;;5076219;28;20081;-95
2021/11/10 16:34:54;;;;;;;91.50;36.83;;;1.10;99.90;;;;;;5077454;28;20112;-96
2021/11/10 16:37:22;;;;;;;98.72;44.20;;;1.10;99.90;;;;;;5075881;28;20025;-95
2021/11/10 16:39:48;;;;;;;108.28;48.13;;;1.00;99.90;;;;;;5075946;28;20027;-93
2021/11/10 16:42:14;;;;;;;89.97;37.35;;;1.00;99.90;;;;;;5075858;28;20040;-96
2021/11/10 16:44:40;;;;;;;72.88;33.28;;;1.00;99.90;;;;;;5076179;28;20463;-95
2021/11/10 16:47:06;;;;;;;95.90;40.78;;;1.00;99.90;;;;;;5075873;28;20024;-95
2021/11/10 16:49:33;;;;;;;76.30;34.00;;;1.00;99.90;;;;;;5075911;28;20389;-95
2021/11/10 16:52:00;;;;;;;76.57;34.45;;;1.00;99.90;;;;;;5075633;28;20031;-95
2021/11/10 16:54:27;;;;;;;69.35;30.05;;;1.00;99.90;;;;;;5075936;28;20024;-95
2021/11/10 16:56:53;;;;;;;64.90;30.73;;;1.00;99.90;;;;;;5075538;28;20025;-93
2021/11/10 16:59:19;;;;;;;67.63;28.73;;;1.00;99.90;;;;;;5075511;28;20074;-93
2021/11/10 17:01:45;;;;;;;69.28;30.35;;;0.90;99.90;;;;;;5075502;28;20119;-93
2021/11/10 17:04:11;;;;;;;74.70;30.95;;;1.00;99.90;;;;;;5075284;28;20071;-92
2021/11/10 17:06:37;;;;;;;74.28;31.95;;;0.90;99.90;;;;;;5075638;28;20082;-92
2021/11/10 17:09:05;;;;;;;75.15;31.92;;;1.00;99.90;;;;;;5075329;28;20021;-90
2021/11/10 17:11:30;;;;;;;74.68;31.05;;;0.90;99.90;;;;;;5075006;28;20093;-90
2021/11/10 17:13:56;;;;;;;70.97;31.27;;;0.90;99.90;;;;;;5075699;28;20474;-93
2021/11/10 17:16:25;;;;;;;72.82;31.13;;;0.90;99.90;;;;;;5076147;28;20469;-94
2021/11/10 17:18:51;;;;;;;68.95;28.67;;;0.90;99.90;;;;;;5075487;28;20078;-95
2021/11/10 17:21:17;;;;;;;62.90;27.27;;;0.80;99.90;;;;;;5075251;28;20025;-95
2021/11/10 17:23:42;;;;;;;63.45;27.90;;;0.80;99.90;;;;;;5075581;28;20374;-92
2021/11/10 17:26:08;;;;;;;62.33;27.17;;;0.80;99.90;;;;;;5075044;28;20035;-91
2021/11/10 17:28:34;;;;;;;80.80;34.45;;;0.80;99.90;;;;;;5074820;28;20035;-92
2021/11/10 17:31:00;;;;;;;58.40;26.27;;;0.80;99.90;;;;;;5076000;28;20470;-91
2021/11/10 17:33:26;;;;;;;59.20;24.85;;;0.80;99.90;;;;;;5074930;28;20024;-91
2021/11/10 17:35:51;;;;;;;58.38;25.23;;;0.90;99.90;;;;;;5075092;28;20382;-92
2021/11/10 17:38:18;;;;;;;60.15;28.08;;;0.90;99.90;;;;;;5074831;28;20028;-92
2021/11/10 17:40:45;;;;;;;61.08;25.85;;;0.90;99.20;;;;;;5073766;28;20066;-92
2021/11/10 17:43:11;;;;;;;42.03;19.35;;;0.90;99.10;;;;;;5074816;28;20074;-92
2021/11/10 17:45:38;;;;;;;47.17;20.15;;;0.90;98.00;;;;;;5074610;28;20020;-92
2021/11/10 17:48:05;;;;;;;45.63;21.13;;;0.90;99.00;;;;;;5074815;28;20027;-92
2021/11/10 17:50:32;;;;;;;42.72;20.40;;;0.90;99.20;;;;;;5074528;28;20032;-92
2021/11/10 17:52:59;;;;;;;42.80;19.55;;;0.90;98.70;;;;;;5074358;28;20021;-93
2021/11/10 17:55:25;;;;;;;40.88;17.58;;;0.90;98.80;;;;;;5074479;28;20033;-93
2021/11/10 17:57:53;;;;;;;39.10;17.42;;;1.00;98.70;;;;;;5074415;28;20446;-92
2021/11/10 18:00:21;;;;;;;36.10;17.45;;;1.10;99.80;;;;;;5074662;28;20048;-92
2021/11/10 18:02:47;;;;;;;40.78;18.15;;;1.20;99.90;;;;;;5074176;28;20459;-95
2021/11/10 18:05:13;;;;;;;41.53;18.45;;;1.20;98.10;;;;;;5075581;28;20028;-93
2021/11/10 18:07:39;;;;;;;40.97;17.55;;;1.30;98.80;;;;;;5076087;28;20074;-95
2021/11/10 18:10:07;;;;;;;40.13;18.73;;;1.40;99.60;;;;;;5075662;28;20036;-93
2021/11/10 18:12:34;;;;;;;43.50;20.95;;;1.50;99.70;;;;;;5075058;28;20024;-94
2021/11/10 18:15:01;;;;;;;49.38;23.75;;;1.60;99.10;;;;;;5075487;28;20086;-93
2021/11/10 18:17:48;;;;;;;53.28;25.80;;;1.60;99.50;;;;;;5074523;28;20053;-95
2021/11/10 18:20:16;;;;;;;71.40;30.88;;;1.70;99.80;;;;;;5074334;28;20120;-94
2021/11/10 18:22:46;;;;;;;66.50;33.35;;;1.80;99.90;;;;;;5074743;28;20021;-95
2021/11/10 18:25:14;;;;;;;81.22;39.22;;;1.80;99.20;;;;;;5074181;28;20089;-92
2021/11/10 18:27:40;;;;;;;95.97;44.55;;;1.90;98.60;;;;;;5074850;28;20107;-92
2021/11/10 18:30:08;;;;;;;90.22;42.22;;;1.90;98.00;;;;;;5073800;28;20062;-91
2021/11/10 18:32:34;;;;;;;115.65;50.38;;;1.90;98.70;;;;;;5074595;28;20085;-95
2021/11/10 18:35:00;;;;;;;120.63;55.05;;;1.90;98.70;;;;;;5074087;28;20021;-94
2021/11/10 18:37:26;;;;;;;113.13;51.90;;;1.90;98.20;;;;;;5076529;28;20043;-96
2021/11/10 18:39:52;;;;;;;124.78;54.17;;;1.80;98.10;;;;;;5075733;28;20028;-96
2021/11/10 18:42:19;;;;;;;124.35;56.35;;;1.80;97.60;;;;;;5077636;28;20026;-96
2021/11/10 18:44:45;;;;;;;138.73;58.67;;;1.80;97.70;;;;;;5074404;28;20021;-95
2021/11/10 18:47:11;;;;;;;127.10;53.17;;;1.70;98.00;;;;;;5073607;28;20059;-95
2021/11/10 18:49:41;;;;;;;81.55;34.47;;;1.70;97.80;;;;;;5073562;28;20056;-94
2021/11/10 18:52:08;;;;;;;66.38;27.05;;;1.80;97.50;;;;;;5073303;28;20036;-95
2021/11/10 18:54:34;;;;;;;62.15;28.67;;;1.80;98.10;;;;;;5074069;28;20052;-94
2021/11/10 18:57:00;;;;;;;79.15;32.72;;;1.80;96.90;;;;;;5073253;28;20115;-94
2021/11/10 18:59:27;;;;;;;69.88;28.65;;;1.90;97.20;;;;;;5073472;28;20489;-95
2021/11/10 19:02:02;;;;;;;72.47;28.38;;;1.90;96.70;;;;;;5073460;28;20024;-94
2021/11/10 19:04:34;;;;;;;88.68;36.35;;;2.00;96.60;;;;;;5073314;28;20020;-92
2021/11/10 19:07:08;;;;;;;44.92;18.95;;;2.00;95.90;;;;;;5073335;28;20036;-92
2021/11/10 19:14:58;;;;;;;39.92;17.27;;;2.20;94.90;;;;;;5074409;28;20016;-92
2021/11/10 19:22:24;;;;;;;43.28;18.88;;;2.40;93.80;;;;;;5074901;28;20017;-95
2021/11/10 19:24:50;;;;;;;41.05;17.65;;;2.50;94.00;;;;;;5072946;28;20031;-95
2021/11/10 19:27:16;;;;;;;42.65;19.48;;;2.50;94.60;;;;;;5073153;28;20024;-94
2021/11/10 19:29:42;;;;;;;40.85;19.65;;;2.20;93.00;;;;;;5073199;28;20443;-95
2021/11/10 19:32:09;;;;;;;35.88;19.27;;;2.20;92.10;;;;;;5073188;28;20525;-94
2021/11/10 19:34:36;;;;;;;31.02;17.15;;;2.30;91.40;;;;;;5073180;28;20036;-96
2021/11/10 19:37:02;;;;;;;34.97;17.38;;;2.30;91.80;;;;;;5074076;28;20032;-93
2021/11/10 19:39:29;;;;;;;35.22;16.65;;;2.30;92.50;;;;;;5093648;28;20091;-96
2021/11/10 19:41:54;;;;;;;29.13;15.18;;;2.40;92.60;;;;;;5093370;28;20035;-96
2021/11/10 19:44:21;;;;;;;30.83;15.85;;;2.40;93.00;;;;;;5093399;28;20024;-96
2021/11/10 19:46:48;;;;;;;35.25;16.83;;;2.40;91.90;;;;;;5093930;28;20027;-96
2021/11/10 19:49:19;;;;;;;34.50;16.10;;;2.40;92.30;;;;;;5095919;28;20028;-95
2021/11/10 19:51:51;;;;;;;35.17;16.08;;;2.50;92.60;;;;;;5102779;28;20024;-96
2021/11/10 19:54:21;;;;;;;33.47;15.80;;;2.60;92.60;;;;;;5100303;28;20032;-96
2021/11/10 19:56:50;;;;;;;27.67;14.85;;;2.60;92.80;;;;;;5098244;28;20024;-96
2021/11/10 19:59:16;;;;;;;33.47;16.05;;;2.60;92.10;;;;;;5095624;28;20090;-95
2021/11/10 20:01:45;;;;;;;31.40;15.73;;;2.60;91.60;;;;;;5093410;28;20017;-93
2021/11/10 20:04:11;;;;;;;27.90;14.93;;;2.60;90.20;;;;;;5095273;28;20367;-96
2021/11/10 20:06:37;;;;;;;26.73;14.05;;;2.60;90.60;;;;;;5097211;28;20028;-94
2021/11/10 20:09:05;;;;;;;27.38;14.00;;;2.60;91.50;;;;;;5097191;28;20063;-95
2021/11/10 20:11:32;;;;;;;28.25;13.35;;;2.70;91.50;;;;;;5097471;28;20059;-96
2021/11/10 20:14:04;;;;;;;32.00;15.32;;;2.70;92.20;;;;;;5097084;28;20431;-96
2021/11/10 20:16:34;;;;;;;31.95;15.90;;;2.70;91.30;;;;;;5097171;28;20040;-95
2021/11/10 20:19:01;;;;;;;;;;;2.70;91.60;;;;;;5098364;28;20134;-94
2021/11/10 20:21:26;;;;;;;33.75;15.10;;;2.70;90.40;;;;;;5097432;28;19911;-95
2021/11/10 20:23:52;;;;;;;33.63;16.42;;;2.70;92.00;;;;;;5096778;28;20020;-94
2021/11/10 20:26:18;;;;;;;34.20;16.33;;;2.70;91.50;;;;;;5096823;28;20020;-94
2021/11/10 20:28:44;;;;;;;35.33;16.67;;;2.70;91.60;;;;;;5096580;28;20024;-96
2021/11/10 20:31:11;;;;;;;34.90;17.90;;;2.60;91.20;;;;;;5096866;28;20027;-96
2021/11/10 20:33:37;;;;;;;34.28;16.50;;;2.50;90.60;;;;;;5096418;28;20051;-95
2021/11/10 20:36:05;;;;;;;40.63;16.40;;;2.40;90.30;;;;;;5096547;28;20020;-95
2021/11/10 20:38:30;;;;;;;34.95;15.98;;;2.40;90.90;;;;;;5096625;28;20024;-96
2021/11/10 20:40:57;;;;;;;38.83;16.73;;;2.40;91.20;;;;;;5096628;28;20485;-96
2021/11/10 20:43:22;;;;;;;38.25;16.42;;;2.30;91.20;;;;;;5096456;28;20070;-96
2021/11/10 20:45:48;;;;;;;39.00;17.33;;;2.30;91.00;;;;;;5096251;28;20020;-96
2021/11/10 20:48:14;;;;;;;38.88;15.85;;;2.20;91.10;;;;;;5096406;28;20032;-95
2021/11/10 20:50:40;;;;;;;44.15;15.98;;;2.10;91.40;;;;;;5096906;28;20020;-96
2021/11/10 20:53:06;;;;;;;47.78;17.55;;;2.10;91.50;;;;;;5096247;28;20554;-96
2021/11/10 20:55:32;;;;;;;45.10;17.30;;;2.00;91.50;;;;;;5096286;28;20024;-95
2021/11/10 20:57:58;;;;;;;42.22;19.42;;;2.00;91.80;;;;;;5097128;28;20078;-95
2021/11/10 21:00:28;;;;;;;46.45;18.25;;;1.90;91.90;;;;;;5096719;28;20020;-96
2021/11/10 21:02:55;;;;;;;58.70;20.80;;;1.90;91.90;;;;;;5096608;28;20020;-96
2021/11/10 21:05:22;;;;;;;57.67;19.73;;;1.90;92.00;;;;;;5096577;28;20142;-96
2021/11/10 21:07:48;;;;;;;59.88;20.85;;;1.80;92.00;;;;;;5095982;28;20028;-96
2021/11/10 21:10:14;;;;;;;50.83;21.00;;;1.80;92.10;;;;;;5095869;28;20028;-96
2021/11/10 21:12:41;;;;;;;47.80;18.98;;;1.80;92.20;;;;;;5096168;28;20031;-96
2021/11/10 21:15:08;;;;;;;36.70;16.58;;;1.70;92.30;;;;;;5096559;28;20482;-96
2021/11/10 21:17:34;;;;;;;34.55;15.93;;;1.70;92.40;;;;;;5095618;28;20488;-96
2021/11/10 21:20:01;;;;;;;44.22;17.90;;;1.70;92.50;;;;;;5096677;28;20074;-95
2021/11/10 21:22:27;;;;;;;41.53;19.10;;;1.60;91.30;;;;;;5095770;28;20493;-96
2021/11/10 21:24:53;;;;;;;35.55;17.88;;;1.60;92.10;;;;;;5095593;28;20031;-95
2021/11/10 21:27:20;;;;;;;34.08;18.25;;;1.50;91.80;;;;;;5095433;28;20023;-96
2021/11/10 21:29:46;;;;;;;36.60;18.45;;;1.50;91.40;;;;;;5095116;28;20031;-96
2021/11/10 21:32:13;;;;;;;35.58;17.35;;;1.30;90.60;;;;;;5095208;28;20032;-95
2021/11/10 21:34:39;;;;;;;32.15;15.73;;;1.30;91.20;;;;;;5094984;28;20077;-94
2021/11/10 21:37:05;;;;;;;30.35;15.32;;;1.30;91.70;;;;;;5095445;28;20035;-94
2021/11/10 21:39:32;;;;;;;27.85;14.45;;;1.30;92.00;;;;;;5095000;28;20484;-96
2021/11/10 21:41:59;;;;;;;30.85;14.65;;;1.40;92.10;;;;;;5095139;28;20032;-96
2021/11/10 21:44:27;;;;;;;36.20;16.92;;;1.40;92.30;;;;;;5095026;28;20020;-96
2021/11/10 21:46:56;;;;;;;58.58;21.40;;;1.40;92.10;;;;;;5095176;28;20028;-95
2021/11/10 21:49:24;;;;;;;44.75;20.10;;;1.40;92.10;;;;;;5095420;28;20119;-96
2021/11/10 21:51:51;;;;;;;44.80;18.85;;;1.30;92.10;;;;;;5094908;28;20028;-96
2021/11/10 21:54:19;;;;;;;51.90;21.13;;;1.40;92.30;;;;;;5094710;28;20492;-96
2021/11/10 21:56:46;;;;;;;62.88;24.77;;;1.40;92.50;;;;;;5094643;28;20036;-96
2021/11/10 21:59:13;;;;;;;59.75;24.95;;;1.30;92.20;;;;;;5094766;28;20363;-96
2021/11/10 22:01:39;;;;;;;64.22;26.35;;;1.30;92.50;;;;;;5094578;28;20027;-96
2021/11/10 22:04:05;;;;;;;63.40;24.05;;;1.20;92.30;;;;;;5094606;28;20389;-96
2021/11/10 22:06:31;;;;;;;53.67;21.98;;;1.20;92.70;;;;;;5094582;28;20024;-96
2021/11/10 22:08:57;;;;;;;60.28;22.48;;;1.30;92.70;;;;;;5094726;28;20551;-96
2021/11/10 22:11:23;;;;;;;53.22;22.08;;;1.20;92.50;;;;;;5094570;28;20024;-95
2021/11/10 22:13:49;;;;;;;52.55;20.98;;;1.30;92.70;;;;;;5094391;28;20024;-95
2021/11/10 22:16:19;;;;;;;53.85;22.02;;;1.40;92.90;;;;;;5094231;28;20085;-94
2021/11/10 22:18:45;;;;;;;52.92;22.05;;;1.40;93.00;;;;;;5094298;28;20055;-95
2021/11/10 22:21:12;;;;;;;50.88;21.15;;;1.50;92.80;;;;;;5094364;28;20034;-95
2021/11/10 22:23:38;;;;;;;52.90;22.65;;;1.60;93.00;;;;;;5094213;28;20466;-96
2021/11/10 22:26:04;;;;;;;49.03;21.05;;;1.60;92.40;;;;;;5093799;28;20021;-96
2021/11/10 22:28:30;;;;;;;46.20;19.95;;;1.70;92.60;;;;;;5094247;28;20055;-92
2021/11/10 22:30:55;;;;;;;36.58;18.13;;;1.80;92.30;;;;;;5094451;28;20358;-94
2021/11/10 22:33:21;;;;;;;39.17;17.33;;;1.80;92.30;;;;;;5093953;28;20477;-96
2021/11/10 22:35:47;;;;;;;38.47;17.80;;;1.90;92.60;;;;;;5094197;28;20051;-95
2021/11/10 22:38:13;;;;;;;30.73;16.65;;;2.00;92.30;;;;;;5093877;28;20031;-95
2021/11/10 22:40:40;;;;;;;32.05;15.93;;;2.00;92.00;;;;;;5094055;28;20029;-95
2021/11/10 22:43:07;;;;;;;32.67;16.27;;;2.00;92.00;;;;;;5093853;28;20034;-96
2021/11/10 22:45:33;;;;;;;33.35;15.57;;;2.00;91.90;;;;;;5094041;28;20027;-96
2021/11/10 22:48:00;;;;;;;38.25;17.80;;;2.10;92.20;;;;;;5093836;28;20024;-96
2021/11/10 22:50:26;;;;;;;37.17;18.67;;;2.10;91.90;;;;;;5093967;28;20069;-96
2021/11/10 22:52:52;;;;;;;38.80;16.92;;;2.10;91.70;;;;;;5094045;28;20023;-94
2021/11/10 22:55:22;;;;;;;48.58;22.67;;;2.10;92.00;;;;;;5093808;28;20024;-94
2021/11/10 22:57:48;;;;;;;55.47;22.30;;;2.10;91.10;;;;;;5093585;28;20024;-94
2021/11/10 23:00:21;;;;;;;54.83;22.73;;;2.10;91.30;;;;;;5093603;28;20253;-94
2021/11/10 23:02:47;;;;;;;75.40;27.15;;;2.10;91.50;;;;;;5093629;28;20031;-95